createdAt,value
2018-09-22T00:00:18.280Z,3.20
2018-09-22T00:02:47.289Z,3.43
2018-09-22T00:05:16.193Z,5.83
2018-09-22T00:07:45.189Z,4.57
2018-09-22T00:10:14.128Z,7.27
2018-09-22T00:12:43.019Z,4.17
2018-09-22T00:15:11.911Z,3.03
2018-09-22T00:17:41.994Z,8.07
2018-09-22T00:20:10.950Z,5.50
2018-09-22T00:22:39.852Z,3.57
2018-09-22T00:25:08.412Z,6.27
2018-09-22T00:27:38.277Z,5.63
2018-09-22T00:30:07.291Z,5.67
2018-09-22T00:32:36.192Z,5.30
2018-09-22T00:35:05.335Z,6.27
2018-09-22T00:37:34.264Z,4.30
2018-09-22T00:40:03.429Z,4.17
2018-09-22T00:42:32.376Z,5.53
2018-09-22T00:45:01.296Z,8.90
2018-09-22T00:47:30.223Z,4.47
2018-09-22T00:49:59.135Z,3.70
2018-09-22T00:52:28.058Z,6.70
2018-09-22T00:54:56.980Z,6.10
2018-09-22T00:57:25.936Z,8.97
2018-09-22T00:59:54.832Z,6.13
2018-09-22T01:02:23.847Z,7.97
2018-09-22T01:04:52.774Z,4.97
2018-09-22T01:07:21.678Z,5.07
2018-09-22T01:09:50.613Z,5.63
2018-09-22T01:12:19.511Z,6.97
2018-09-22T01:14:49.871Z,5.47
2018-09-22T01:17:18.800Z,5.13
2018-09-22T01:19:47.734Z,5.10
2018-09-22T01:22:16.632Z,6.00
2018-09-22T01:24:45.652Z,7.60
2018-09-22T01:27:14.538Z,4.03
2018-09-22T01:29:43.442Z,10.43
2018-09-22T01:32:12.357Z,7.80
2018-09-22T01:34:41.252Z,4.47
2018-09-22T01:37:10.204Z,7.77
2018-09-22T01:39:39.105Z,5.30
2018-09-22T01:42:08.020Z,5.63
2018-09-22T01:44:36.911Z,4.50
2018-09-22T01:47:05.840Z,3.90
2018-09-22T01:49:34.728Z,5.07
2018-09-22T01:52:03.683Z,4.27
2018-09-22T01:54:32.588Z,6.37
2018-09-22T01:57:01.603Z,6.83
2018-09-22T01:59:30.473Z,5.23
2018-09-22T02:01:59.505Z,11.53
2018-09-22T02:04:28.407Z,5.90
2018-09-22T02:06:57.311Z,4.80
2018-09-22T02:09:26.207Z,5.00
2018-09-22T02:11:55.154Z,4.30
2018-09-22T02:14:24.129Z,3.30
2018-09-22T02:16:52.996Z,6.97
2018-09-22T02:19:21.901Z,4.33
2018-09-22T02:21:51.477Z,2.50
2018-09-22T02:24:20.384Z,5.70
2018-09-22T02:26:49.285Z,4.93
2018-09-22T02:29:18.237Z,2.77
2018-09-22T02:31:47.136Z,3.30
2018-09-22T02:34:16.072Z,6.47
2018-09-22T02:36:44.976Z,5.97
2018-09-22T02:39:13.891Z,5.77
2018-09-22T02:41:42.792Z,3.43
2018-09-22T02:44:11.784Z,4.33
2018-09-22T02:46:40.707Z,9.33
2018-09-22T02:49:09.599Z,10.63
2018-09-22T02:51:38.549Z,6.40
2018-09-22T02:54:07.441Z,5.43
2018-09-22T02:56:36.341Z,3.00
2018-09-22T02:59:05.277Z,5.40
2018-09-22T03:01:34.189Z,8.83
2018-09-22T03:04:03.208Z,2.97
2018-09-22T03:06:32.202Z,4.93
2018-09-22T03:09:03.400Z,5.10
2018-09-22T03:11:32.648Z,5.37
2018-09-22T03:14:01.733Z,5.67
2018-09-22T03:16:30.850Z,4.77
2018-09-22T03:19:00.088Z,4.57
2018-09-22T03:21:29.216Z,4.57
2018-09-22T03:23:58.341Z,4.17
2018-09-22T03:26:27.462Z,4.97
2018-09-22T03:28:56.396Z,4.50
2018-09-22T03:31:25.343Z,4.73
2018-09-22T03:33:54.231Z,6.03
2018-09-22T03:36:23.161Z,3.77
2018-09-22T03:38:52.191Z,5.90
2018-09-22T03:41:21.112Z,6.30
2018-09-22T03:43:50.027Z,8.50
2018-09-22T03:46:19.006Z,6.47
2018-09-22T03:48:47.957Z,5.67
2018-09-22T03:51:16.913Z,3.97
2018-09-22T03:53:45.806Z,2.60
2018-09-22T03:56:16.788Z,11.27
2018-09-22T03:58:45.722Z,3.47
2018-09-22T04:01:14.622Z,6.17
2018-09-22T04:03:43.519Z,9.53
2018-09-22T04:06:12.440Z,5.97
2018-09-22T04:08:41.350Z,5.07
2018-09-22T04:11:10.360Z,10.33
2018-09-22T04:13:39.340Z,6.83
2018-09-22T04:16:08.253Z,4.00
2018-09-22T04:18:37.144Z,2.70
2018-09-22T04:21:05.654Z,5.67
2018-09-22T04:23:34.604Z,7.10
2018-09-22T04:26:03.539Z,4.77
2018-09-22T04:28:32.454Z,3.83
2018-09-22T04:31:01.540Z,7.43
2018-09-22T04:33:30.568Z,3.37
2018-09-22T04:35:59.456Z,3.87
2018-09-22T04:38:28.377Z,4.57
2018-09-22T04:40:57.303Z,2.90
2018-09-22T04:43:26.288Z,3.87
2018-09-22T04:45:55.183Z,4.30
2018-09-22T04:48:24.084Z,5.97
2018-09-22T04:50:53.023Z,3.90
2018-09-22T04:53:21.988Z,5.00
2018-09-22T04:55:50.909Z,6.37
2018-09-22T04:58:19.840Z,6.17
2018-09-22T05:00:48.761Z,7.50
2018-09-22T05:03:17.780Z,6.63
2018-09-22T05:05:46.672Z,5.20
2018-09-22T05:08:15.588Z,5.13
2018-09-22T05:10:44.500Z,3.87
2018-09-22T05:13:13.508Z,7.47
2018-09-22T05:15:42.399Z,6.13
2018-09-22T05:18:11.314Z,4.53
2018-09-22T05:20:40.220Z,6.23
2018-09-22T05:23:09.156Z,5.00
2018-09-22T05:25:38.073Z,4.27
2018-09-22T05:28:09.045Z,4.97
2018-09-22T05:30:38.014Z,4.50
2018-09-22T05:33:06.913Z,6.37
2018-09-22T05:35:35.837Z,5.13
2018-09-22T05:38:04.785Z,7.73
2018-09-22T05:40:33.732Z,3.87
2018-09-22T05:43:02.704Z,2.83
2018-09-22T05:45:31.604Z,5.87
2018-09-22T05:48:00.561Z,5.33
2018-09-22T05:50:29.450Z,9.37
2018-09-22T05:52:58.338Z,5.37
2018-09-22T05:55:27.256Z,7.37
2018-09-22T05:57:56.238Z,6.67
2018-09-22T06:00:25.068Z,6.90
2018-09-22T06:02:55.788Z,8.17
2018-09-22T06:05:24.704Z,4.70
2018-09-22T06:07:53.604Z,4.73
2018-09-22T06:10:22.519Z,2.67
2018-09-22T06:12:51.513Z,7.40
2018-09-22T06:15:20.448Z,4.90
2018-09-22T06:17:49.337Z,7.80
2018-09-22T06:20:18.257Z,9.07
2018-09-22T06:22:47.210Z,6.57
2018-09-22T06:25:16.224Z,4.83
2018-09-22T06:27:45.136Z,8.67
2018-09-22T06:30:14.442Z,9.30
2018-09-22T06:32:43.506Z,4.53
2018-09-22T06:35:12.740Z,8.40
2018-09-22T06:37:41.707Z,4.47
2018-09-22T06:40:10.621Z,6.00
2018-09-22T06:42:39.493Z,7.47
2018-09-22T06:45:08.398Z,7.70
2018-09-22T06:47:37.320Z,7.27
2018-09-22T06:50:06.295Z,7.40
2018-09-22T06:52:35.177Z,6.13
2018-09-22T06:55:04.192Z,6.33
2018-09-22T06:57:33.668Z,10.50
2018-09-22T07:00:02.662Z,5.97
2018-09-22T07:02:31.550Z,3.43
2018-09-22T07:05:00.489Z,6.83
2018-09-22T07:07:29.400Z,6.87
2018-09-22T07:09:58.346Z,9.50
2018-09-22T07:12:27.316Z,7.83
2018-09-22T07:14:56.239Z,6.33
2018-09-22T07:17:28.832Z,6.43
2018-09-22T07:19:57.811Z,9.63
2018-09-22T07:22:31.948Z,10.50
2018-09-22T07:25:00.854Z,7.70
2018-09-22T07:27:29.743Z,11.00
2018-09-22T07:29:58.664Z,8.87
2018-09-22T07:32:27.572Z,5.57
2018-09-22T07:34:56.472Z,10.53
2018-09-22T07:37:25.365Z,7.40
2018-09-22T07:39:54.274Z,14.87
2018-09-22T07:42:23.186Z,10.80
2018-09-22T07:44:52.120Z,12.33
2018-09-22T07:47:21.168Z,8.53
2018-09-22T07:49:50.105Z,10.73
2018-09-22T07:52:19.089Z,7.37
2018-09-22T07:54:48.034Z,11.67
2018-09-22T07:57:17.004Z,6.77
2018-09-22T07:59:45.886Z,16.97
2018-09-22T08:02:14.811Z,9.57
2018-09-22T08:04:43.764Z,8.10
2018-09-22T08:07:12.718Z,5.40
2018-09-22T08:09:41.603Z,14.07
2018-09-22T08:12:10.593Z,7.63
2018-09-22T08:14:39.550Z,8.33
2018-09-22T08:17:08.484Z,7.20
2018-09-22T08:19:37.403Z,9.03
2018-09-22T08:22:06.395Z,9.07
2018-09-22T08:24:35.280Z,8.90
2018-09-22T08:27:04.812Z,10.50
2018-09-22T08:29:33.731Z,8.87
2018-09-22T08:32:02.764Z,8.93
2018-09-22T08:34:31.689Z,7.80
2018-09-22T08:37:00.891Z,11.37
2018-09-22T08:39:31.692Z,10.03
2018-09-22T08:42:01.854Z,11.93
2018-09-22T08:44:30.781Z,10.63
2018-09-22T08:46:59.993Z,10.03
2018-09-22T08:49:28.967Z,10.23
2018-09-22T08:51:58.007Z,10.83
2018-09-22T08:54:26.965Z,9.67
2018-09-22T08:56:55.819Z,7.57
2018-09-22T08:59:24.723Z,9.07
2018-09-22T09:01:53.717Z,9.73
2018-09-22T09:04:22.667Z,7.60
2018-09-22T09:06:51.641Z,8.57
2018-09-22T09:09:20.608Z,7.83
2018-09-22T09:11:49.553Z,10.17
2018-09-22T09:14:18.509Z,5.67
2018-09-22T09:16:47.405Z,8.40
2018-09-22T09:19:16.356Z,9.67
2018-09-22T09:21:45.308Z,9.77
2018-09-22T09:24:14.205Z,8.70
2018-09-22T09:26:43.177Z,8.27
2018-09-22T09:29:12.467Z,8.63
2018-09-22T09:31:41.368Z,10.37
2018-09-22T09:34:10.276Z,9.23
2018-09-22T09:36:39.195Z,4.47
2018-09-22T09:39:08.103Z,9.77
2018-09-22T09:41:37.017Z,11.20
2018-09-22T09:44:05.935Z,7.97
2018-09-22T09:46:34.823Z,11.93
2018-09-22T09:49:03.749Z,8.67
2018-09-22T09:51:34.698Z,9.57
2018-09-22T09:54:03.674Z,15.63
2018-09-22T09:56:32.661Z,9.63
2018-09-22T09:59:01.544Z,9.23
2018-09-22T10:01:30.515Z,10.93
2018-09-22T10:03:59.491Z,12.50
2018-09-22T10:06:28.423Z,9.97
2018-09-22T10:08:58.437Z,10.27
2018-09-22T10:11:27.349Z,10.73
2018-09-22T10:13:56.255Z,8.43
2018-09-22T10:16:25.160Z,9.90
2018-09-22T10:18:54.035Z,11.90
2018-09-22T10:21:22.994Z,8.10
2018-09-22T10:23:51.849Z,9.67
2018-09-22T10:26:20.781Z,7.30
2018-09-22T10:28:49.828Z,9.77
2018-09-22T10:31:18.777Z,7.53
2018-09-22T10:33:47.708Z,8.00
2018-09-22T10:36:16.648Z,7.23
2018-09-22T10:38:45.767Z,8.27
2018-09-22T10:41:14.739Z,10.37
2018-09-22T10:43:43.664Z,7.77
2018-09-22T10:46:12.572Z,11.43
2018-09-22T10:48:41.493Z,8.47
2018-09-22T10:51:10.398Z,8.10
2018-09-22T10:53:39.311Z,10.40
2018-09-22T10:56:08.373Z,8.00
2018-09-22T10:58:37.262Z,5.40
2018-09-22T11:01:06.204Z,7.57
2018-09-22T11:03:35.138Z,5.63
2018-09-22T11:06:04.093Z,7.03
2018-09-22T11:08:33.061Z,3.70
2018-09-22T11:11:01.957Z,4.03
2018-09-22T11:13:30.878Z,2.97
2018-09-22T11:15:59.853Z,5.53
2018-09-22T11:18:28.761Z,4.73
2018-09-22T11:20:57.823Z,3.20
2018-09-22T11:23:26.794Z,4.20
2018-09-22T11:25:55.700Z,4.83
2018-09-22T11:28:24.677Z,4.90
2018-09-22T11:30:53.641Z,3.70
2018-09-22T11:33:22.605Z,3.23
2018-09-22T11:35:51.550Z,2.43
2018-09-22T11:38:20.571Z,3.00
2018-09-22T11:41:00.088Z,1.73
2018-09-22T11:43:29.019Z,3.03
2018-09-22T11:46:00.339Z,3.83
2018-09-22T11:48:29.229Z,4.80
2018-09-22T11:50:58.376Z,7.30
2018-09-22T11:53:27.345Z,4.90
2018-09-22T11:55:56.268Z,5.00
2018-09-22T11:58:25.205Z,2.60
2018-09-22T12:00:54.113Z,5.17
2018-09-22T12:03:24.109Z,4.23
2018-09-22T12:05:53.092Z,5.27
2018-09-22T12:08:22.015Z,4.43
2018-09-22T12:10:50.933Z,4.57
2018-09-22T12:13:20.432Z,5.40
2018-09-22T12:15:49.418Z,2.33
2018-09-22T12:18:18.341Z,5.00
2018-09-22T12:20:47.267Z,3.23
2018-09-22T12:23:16.193Z,2.93
2018-09-22T12:25:45.124Z,5.00
2018-09-22T12:28:14.116Z,4.77
2018-09-22T12:30:43.073Z,5.70
2018-09-22T12:33:11.992Z,2.60
2018-09-22T12:35:40.909Z,3.63
2018-09-22T12:38:09.904Z,3.43
2018-09-22T12:40:39.177Z,3.33
2018-09-22T12:43:08.721Z,3.00
2018-09-22T12:45:37.844Z,2.93
2018-09-22T12:48:06.903Z,5.20
2018-09-22T12:50:35.865Z,3.67
2018-09-22T12:53:05.425Z,3.63
2018-09-22T12:55:34.620Z,2.80
2018-09-22T12:58:03.588Z,8.70
2018-09-22T13:00:32.568Z,3.77
2018-09-22T13:03:01.525Z,6.83
2018-09-22T13:08:17.363Z,4.20
2018-09-22T13:10:46.273Z,6.07
2018-09-22T13:13:15.339Z,2.63
2018-09-22T13:15:44.388Z,8.93
2018-09-22T13:18:13.333Z,7.93
2018-09-22T13:20:42.960Z,5.77
2018-09-22T13:23:11.931Z,4.33
2018-09-22T13:25:40.824Z,2.73
2018-09-22T13:28:09.750Z,6.23
2018-09-22T13:30:38.746Z,4.23
2018-09-22T13:33:07.634Z,5.33
2018-09-22T13:35:36.648Z,5.43
2018-09-22T13:38:05.627Z,4.50
2018-09-22T13:40:34.536Z,7.40
2018-09-22T13:43:03.513Z,6.83
2018-09-22T13:45:32.416Z,8.17
2018-09-22T13:48:01.372Z,5.97
2018-09-22T13:50:30.272Z,7.47
2018-09-22T13:52:59.232Z,7.63
2018-09-22T13:55:28.204Z,8.40
2018-09-22T13:57:57.244Z,6.23
2018-09-22T14:00:26.122Z,5.47
2018-09-22T14:02:55.030Z,8.83
2018-09-22T14:05:23.981Z,10.63
2018-09-22T14:07:52.880Z,5.27
2018-09-22T14:10:21.845Z,6.93
2018-09-22T14:12:50.904Z,5.57
2018-09-22T14:15:19.884Z,5.00
2018-09-22T14:17:51.257Z,8.20
2018-09-22T14:20:37.152Z,6.07
2018-09-22T14:23:06.088Z,2.20
2018-09-22T14:25:34.976Z,7.43
2018-09-22T14:28:03.920Z,4.37
2018-09-22T14:30:32.892Z,6.10
2018-09-22T14:33:01.823Z,5.87
2018-09-22T14:35:30.700Z,4.83
2018-09-22T14:37:59.674Z,3.93
2018-09-22T14:40:28.633Z,6.03
2018-09-22T14:42:57.487Z,5.60
2018-09-22T14:45:26.381Z,2.70
2018-09-22T14:47:55.417Z,6.40
2018-09-22T14:50:24.311Z,2.57
2018-09-22T14:52:53.244Z,6.83
2018-09-22T14:55:22.425Z,5.70
2018-09-22T14:57:51.296Z,4.47
2018-09-22T15:00:20.284Z,6.43
2018-09-22T15:02:49.206Z,4.73
2018-09-22T15:05:18.137Z,5.37
2018-09-22T15:07:47.010Z,3.37
2018-09-22T15:10:15.893Z,3.27
2018-09-22T15:12:44.764Z,5.47
2018-09-22T15:15:13.666Z,2.87
2018-09-22T15:17:42.576Z,4.73
2018-09-22T15:20:11.484Z,8.23
2018-09-22T15:22:40.424Z,5.63
2018-09-22T15:25:09.372Z,4.43
2018-09-22T15:27:38.269Z,6.23
2018-09-22T15:30:07.200Z,5.50
2018-09-22T15:32:36.227Z,4.70
2018-09-22T15:35:05.194Z,3.77
2018-09-22T15:37:34.110Z,4.90
2018-09-22T15:40:03.118Z,4.70
2018-09-22T15:42:31.983Z,6.73
2018-09-22T15:45:00.896Z,4.33
2018-09-22T15:47:29.790Z,6.30
2018-09-22T15:49:58.700Z,8.67
2018-09-22T15:52:27.593Z,6.43
2018-09-22T15:54:56.492Z,5.63
2018-09-22T15:57:25.416Z,8.07
2018-09-22T15:59:54.313Z,6.03
2018-09-22T16:02:23.220Z,7.07
2018-09-22T16:04:54.154Z,3.10
2018-09-22T16:07:23.029Z,5.30
2018-09-22T16:09:52.006Z,6.67
2018-09-22T16:12:20.891Z,8.93
2018-09-22T16:14:50.877Z,6.40
2018-09-22T16:17:19.796Z,5.33
2018-09-22T16:19:48.706Z,2.87
2018-09-22T16:22:17.575Z,5.10
2018-09-22T16:24:46.457Z,10.07
2018-09-22T16:27:15.376Z,8.20
2018-09-22T16:29:44.284Z,3.77
2018-09-22T16:32:13.176Z,5.93
2018-09-22T16:34:42.082Z,3.87
2018-09-22T16:37:10.980Z,11.10
2018-09-22T16:39:39.869Z,5.10
2018-09-22T16:42:08.742Z,5.33
2018-09-22T16:44:37.673Z,5.97
2018-09-22T16:47:10.094Z,3.10
2018-09-22T16:49:38.999Z,8.00
2018-09-22T16:52:07.882Z,3.53
2018-09-22T16:54:36.772Z,9.00
2018-09-22T16:57:05.685Z,6.07
2018-09-22T16:59:34.696Z,4.23
2018-09-22T17:02:03.626Z,4.83
2018-09-22T17:04:32.551Z,5.97
2018-09-22T17:07:01.464Z,5.90
2018-09-22T17:12:14.814Z,6.07
2018-09-22T17:14:43.892Z,11.67
2018-09-22T17:17:15.944Z,4.90
2018-09-22T17:19:44.894Z,6.13
2018-09-22T17:22:13.828Z,4.87
2018-09-22T17:24:42.800Z,6.77
2018-09-22T17:27:11.766Z,4.03
2018-09-22T17:29:40.743Z,5.50
2018-09-22T17:32:09.648Z,4.80
2018-09-22T17:34:39.610Z,5.37
2018-09-22T17:37:08.553Z,7.50
2018-09-22T17:39:37.491Z,5.40
2018-09-22T17:42:06.425Z,5.23
2018-09-22T17:44:35.397Z,4.07
2018-09-22T17:47:04.335Z,6.80
2018-09-22T17:49:33.555Z,5.90
2018-09-22T17:52:02.488Z,3.57
2018-09-22T17:54:31.469Z,4.33
2018-09-22T17:57:00.511Z,4.63
2018-09-22T17:59:29.661Z,5.60
2018-09-22T18:01:58.928Z,5.83
2018-09-22T18:04:28.105Z,4.10
2018-09-22T18:06:57.128Z,8.03
2018-09-22T18:09:26.109Z,10.07
2018-09-22T18:11:55.059Z,3.43
2018-09-22T18:14:23.971Z,5.57
2018-09-22T18:16:52.907Z,4.70
2018-09-22T18:19:21.805Z,9.23
2018-09-22T18:21:50.700Z,8.17
2018-09-22T18:24:20.729Z,9.07
2018-09-22T18:26:49.641Z,7.23
2018-09-22T18:29:18.551Z,6.17
2018-09-22T18:31:47.461Z,5.50
2018-09-22T18:34:16.391Z,7.27
2018-09-22T18:36:46.419Z,6.50
2018-09-22T18:39:15.323Z,7.23
2018-09-22T18:41:44.394Z,6.17
2018-09-22T18:44:13.324Z,7.07
2018-09-22T18:46:42.272Z,6.27
2018-09-22T18:49:11.245Z,6.03
2018-09-22T18:51:41.279Z,5.57
2018-09-22T18:54:16.760Z,7.97
2018-09-22T18:56:45.734Z,6.47
2018-09-22T18:59:14.833Z,6.73
2018-09-22T19:01:43.769Z,4.37
2018-09-22T19:04:12.715Z,9.07
2018-09-22T19:06:41.832Z,6.80
2018-09-22T19:09:11.589Z,8.23
2018-09-22T19:11:40.881Z,6.83
2018-09-22T19:14:15.911Z,6.97
2018-09-22T19:16:49.107Z,6.03
2018-09-22T19:19:23.044Z,7.90
2018-09-22T19:21:56.327Z,5.07
2018-09-22T19:24:44.096Z,6.97
2018-09-22T19:27:22.241Z,9.67
2018-09-22T19:30:55.555Z,4.47
2018-09-22T19:33:33.641Z,5.40
2018-09-22T19:36:05.604Z,5.80
2018-09-22T19:38:41.749Z,5.20
2018-09-22T19:41:19.032Z,5.07
2018-09-22T19:44:03.225Z,4.63
2018-09-22T19:46:50.825Z,4.47
2018-09-22T19:49:24.455Z,7.67
2018-09-22T19:51:57.469Z,8.70
2018-09-22T19:54:26.369Z,6.07
2018-09-22T19:56:55.324Z,7.50
2018-09-22T19:59:24.277Z,4.93
2018-09-22T20:02:06.187Z,9.47
2018-09-22T20:04:35.128Z,6.67
2018-09-22T20:07:04.069Z,9.70
2018-09-22T20:09:33.311Z,7.67
2018-09-22T20:12:02.292Z,8.90
2018-09-22T20:14:31.278Z,9.03
2018-09-22T20:17:00.179Z,8.50
2018-09-22T20:19:29.095Z,8.10
2018-09-22T20:21:58.037Z,8.93
2018-09-22T20:24:27.027Z,11.90
2018-09-22T20:26:55.985Z,11.57
2018-09-22T20:29:24.910Z,8.60
2018-09-22T20:31:53.835Z,7.73
2018-09-22T20:34:22.789Z,13.40
2018-09-22T20:36:56.741Z,13.43
2018-09-22T20:39:25.642Z,9.10
2018-09-22T20:41:54.567Z,10.30
2018-09-22T20:44:27.961Z,13.37
2018-09-22T20:46:56.903Z,13.87
2018-09-22T20:49:25.767Z,13.00
2018-09-22T20:51:54.648Z,13.03
2018-09-22T20:54:23.579Z,10.53
2018-09-22T20:56:52.459Z,11.10
2018-09-22T20:59:21.325Z,11.13
2018-09-22T21:01:50.218Z,10.07
2018-09-22T21:04:19.171Z,11.30
2018-09-22T21:06:48.047Z,9.43
2018-09-22T21:09:16.933Z,10.30
2018-09-22T21:11:52.205Z,10.67
2018-09-22T21:14:21.108Z,9.10
2018-09-22T21:16:49.993Z,10.83
2018-09-22T21:19:19.659Z,14.30
2018-09-22T21:21:48.590Z,12.40
2018-09-22T21:24:17.597Z,15.50
2018-09-22T21:26:46.408Z,12.63
2018-09-22T21:29:15.355Z,8.97
2018-09-22T21:31:44.259Z,12.63
2018-09-22T21:34:13.175Z,11.10
2018-09-22T21:36:42.091Z,14.07
2018-09-22T21:39:11.243Z,11.97
2018-09-22T21:41:40.141Z,12.30
2018-09-22T21:44:09.050Z,13.60
2018-09-22T21:46:38.001Z,12.17
2018-09-22T21:49:07.012Z,13.50
2018-09-22T21:51:35.899Z,17.50
2018-09-22T21:54:04.817Z,15.47
2018-09-22T21:56:33.733Z,13.27
2018-09-22T21:59:02.696Z,15.53
2018-09-22T22:01:36.748Z,19.03
2018-09-22T22:04:05.677Z,19.37
2018-09-22T22:06:34.640Z,17.90
2018-09-22T22:09:04.905Z,19.17
2018-09-22T22:11:33.875Z,16.20
2018-09-22T22:14:02.754Z,18.67
2018-09-22T22:16:31.664Z,19.67
2018-09-22T22:19:00.803Z,19.73
2018-09-22T22:21:29.739Z,21.67
2018-09-22T22:23:58.657Z,20.17
2018-09-22T22:26:27.551Z,25.27
2018-09-22T22:28:56.509Z,27.37
2018-09-22T22:31:25.511Z,24.97
2018-09-22T22:33:54.413Z,24.80
2018-09-22T22:36:23.352Z,26.50
2018-09-22T22:38:52.300Z,24.43
2018-09-22T22:41:21.771Z,18.63
2018-09-22T22:43:50.700Z,22.03
2018-09-22T22:46:19.597Z,22.30
2018-09-22T22:48:48.537Z,24.53
2018-09-22T22:51:17.419Z,28.27
2018-09-22T22:53:46.365Z,25.07
2018-09-22T22:56:15.244Z,28.90
2018-09-22T22:58:44.155Z,28.77
2018-09-22T23:01:13.053Z,27.57
2018-09-22T23:03:41.964Z,32.03
2018-09-22T23:06:10.885Z,32.50
2018-09-22T23:08:39.835Z,30.33
2018-09-22T23:11:08.736Z,30.57
2018-09-22T23:13:37.751Z,33.43
2018-09-22T23:16:06.698Z,30.93
2018-09-22T23:18:35.597Z,32.60
2018-09-22T23:21:04.553Z,29.90
2018-09-22T23:23:33.464Z,33.77
2018-09-22T23:26:02.395Z,35.03
2018-09-22T23:28:31.297Z,33.37
2018-09-22T23:31:00.202Z,29.20
2018-09-22T23:33:29.113Z,30.70
2018-09-22T23:35:58.125Z,28.17
2018-09-22T23:38:27.016Z,27.87
2018-09-22T23:40:55.939Z,28.83
2018-09-22T23:43:24.840Z,27.50
2018-09-22T23:45:53.734Z,28.27
2018-09-22T23:48:22.652Z,27.47
2018-09-22T23:50:51.569Z,25.83
2018-09-22T23:53:20.573Z,27.53
2018-09-22T23:55:49.482Z,23.70
2018-09-22T23:58:18.416Z,29.70
